sensor_id;sensor_type;location;lat;lon;timestamp;pressure;altitude;pressure_sealevel;temperature;humidity
51449;BME280;37520;46.570;14.268;2022-09-30T00:06:00;94594.94;;;9.15;100.00
51449;BME280;37520;46.570;14.268;2022-09-30T00:12:42;94600.47;;;9.13;100.00
51449;BME280;37520;46.570;14.268;2022-09-30T00:19:23;94621.56;;;9.13;100.00
51449;BME280;37520;46.570;14.268;2022-09-30T00:26:11;94648.72;;;9.14;100.00
51449;BME280;37520;46.570;14.268;2022-09-30T00:32:53;94669.56;;;9.15;100.00
51449;BME280;37520;46.570;14.268;2022-09-30T00:39:34;94666.63;;;9.12;100.00
51449;BME280;37520;46.570;14.268;2022-09-30T00:46:34;94651.38;;;9.14;100.00
51449;BME280;37520;46.570;14.268;2022-09-30T00:53:26;94650.06;;;9.16;100.00
51449;BME280;37520;46.570;14.268;2022-09-30T01:00:10;94659.28;;;9.19;100.00
51449;BME280;37520;46.570;14.268;2022-09-30T01:06:51;94660.88;;;9.20;100.00
51449;BME280;37520;46.570;14.268;2022-09-30T01:13:34;94655.06;;;9.23;100.00
51449;BME280;37520;46.570;14.268;2022-09-30T01:34:23;94657.22;;;9.26;100.00
51449;BME280;37520;46.570;14.268;2022-09-30T01:41:20;94643.53;;;9.29;100.00
51449;BME280;37520;46.570;14.268;2022-09-30T01:55:15;94639.81;;;9.30;100.00
51449;BME280;37520;46.570;14.268;2022-09-30T02:02:12;94639.81;;;9.30;100.00
51449;BME280;37520;46.570;14.268;2022-09-30T02:09:12;94647.50;;;9.32;100.00
51449;BME280;37520;46.570;14.268;2022-09-30T02:16:00;94655.13;;;9.28;100.00
51449;BME280;37520;46.570;14.268;2022-09-30T02:29:58;94675.44;;;9.33;100.00
51449;BME280;37520;46.570;14.268;2022-09-30T02:36:54;94685.72;;;9.29;100.00
51449;BME280;37520;46.570;14.268;2022-09-30T02:43:38;94689.16;;;9.30;100.00
51449;BME280;37520;46.570;14.268;2022-09-30T02:50:46;94691.25;;;9.33;100.00
51449;BME280;37520;46.570;14.268;2022-09-30T03:04:50;94718.69;;;9.32;100.00
51449;BME280;37520;46.570;14.268;2022-09-30T03:11:31;94721.06;;;9.33;100.00
51449;BME280;37520;46.570;14.268;2022-09-30T03:52:58;94778.28;;;9.33;100.00
51449;BME280;37520;46.570;14.268;2022-09-30T03:59:42;94788.84;;;9.33;100.00
51449;BME280;37520;46.570;14.268;2022-09-30T04:06:24;94794.94;;;9.33;100.00
51449;BME280;37520;46.570;14.268;2022-09-30T04:13:06;94811.25;;;9.30;100.00
51449;BME280;37520;46.570;14.268;2022-09-30T04:19:48;94821.00;;;9.30;100.00
51449;BME280;37520;46.570;14.268;2022-09-30T04:26:30;94808.09;;;9.28;100.00
51449;BME280;37520;46.570;14.268;2022-09-30T04:33:11;94828.38;;;9.28;100.00
51449;BME280;37520;46.570;14.268;2022-09-30T04:39:53;94830.72;;;9.24;100.00
51449;BME280;37520;46.570;14.268;2022-09-30T04:46:35;94833.13;;;9.26;100.00
51449;BME280;37520;46.570;14.268;2022-09-30T04:53:17;94836.81;;;9.25;100.00
51449;BME280;37520;46.570;14.268;2022-09-30T04:59:59;94848.41;;;9.24;100.00
51449;BME280;37520;46.570;14.268;2022-09-30T05:06:40;94855.75;;;9.22;100.00
51449;BME280;37520;46.570;14.268;2022-09-30T05:13:23;94869.22;;;9.20;100.00
51449;BME280;37520;46.570;14.268;2022-09-30T05:20:05;94882.66;;;9.18;100.00
51449;BME280;37520;46.570;14.268;2022-09-30T05:26:50;94887.94;;;9.18;100.00
51449;BME280;37520;46.570;14.268;2022-09-30T05:33:32;94892.16;;;9.19;100.00
51449;BME280;37520;46.570;14.268;2022-09-30T05:40:14;94894.84;;;9.25;100.00
51449;BME280;37520;46.570;14.268;2022-09-30T05:46:56;94891.44;;;9.29;100.00
51449;BME280;37520;46.570;14.268;2022-09-30T05:53:39;94899.88;;;9.31;100.00
51449;BME280;37520;46.570;14.268;2022-09-30T06:00:21;94918.09;;;9.33;100.00
51449;BME280;37520;46.570;14.268;2022-09-30T06:07:02;94932.88;;;9.34;100.00
51449;BME280;37520;46.570;14.268;2022-09-30T06:13:44;94942.41;;;9.40;100.00
51449;BME280;37520;46.570;14.268;2022-09-30T06:20:25;94957.00;;;9.48;100.00
51449;BME280;37520;46.570;14.268;2022-09-30T06:27:07;94956.53;;;9.56;100.00
51449;BME280;37520;46.570;14.268;2022-09-30T06:33:51;94950.25;;;9.67;100.00
51449;BME280;37520;46.570;14.268;2022-09-30T06:40:32;94979.91;;;9.80;100.00
51449;BME280;37520;46.570;14.268;2022-09-30T06:47:14;94985.56;;;9.94;100.00
51449;BME280;37520;46.570;14.268;2022-09-30T06:53:55;94994.88;;;10.07;100.00
51449;BME280;37520;46.570;14.268;2022-09-30T07:00:36;94994.38;;;10.10;100.00
51449;BME280;37520;46.570;14.268;2022-09-30T07:07:18;95010.31;;;10.25;100.00
51449;BME280;37520;46.570;14.268;2022-09-30T07:14:05;95011.81;;;10.59;100.00
51449;BME280;37520;46.570;14.268;2022-09-30T07:20:51;95022.88;;;11.19;100.00
51449;BME280;37520;46.570;14.268;2022-09-30T07:27:33;95028.75;;;11.57;100.00
51449;BME280;37520;46.570;14.268;2022-09-30T07:34:14;95046.75;;;11.66;100.00
51449;BME280;37520;46.570;14.268;2022-09-30T07:40:56;95045.97;;;11.50;100.00
51449;BME280;37520;46.570;14.268;2022-09-30T07:47:38;95050.22;;;11.56;100.00
51449;BME280;37520;46.570;14.268;2022-09-30T07:54:22;95071.13;;;11.57;100.00
51449;BME280;37520;46.570;14.268;2022-09-30T08:01:05;95085.44;;;11.77;100.00
51449;BME280;37520;46.570;14.268;2022-09-30T08:07:47;95065.84;;;11.68;100.00
51449;BME280;37520;46.570;14.268;2022-09-30T08:14:28;95078.28;;;11.77;100.00
51449;BME280;37520;46.570;14.268;2022-09-30T08:21:10;95090.78;;;11.98;100.00
51449;BME280;37520;46.570;14.268;2022-09-30T08:27:54;95099.00;;;12.17;100.00
51449;BME280;37520;46.570;14.268;2022-09-30T08:34:35;95101.63;;;12.32;99.41
51449;BME280;37520;46.570;14.268;2022-09-30T08:41:31;95094.47;;;12.48;99.32
51449;BME280;37520;46.570;14.268;2022-09-30T08:48:47;95114.34;;;12.51;98.18
51449;BME280;37520;46.570;14.268;2022-09-30T08:55:40;95119.09;;;12.44;99.17
51449;BME280;37520;46.570;14.268;2022-09-30T09:23:16;95155.91;;;12.92;97.37
51449;BME280;37520;46.570;14.268;2022-09-30T09:30:11;95159.53;;;13.21;97.08
51449;BME280;37520;46.570;14.268;2022-09-30T09:44:53;95172.53;;;13.18;93.94
51449;BME280;37520;46.570;14.268;2022-09-30T09:51:40;95164.34;;;13.09;93.49
51449;BME280;37520;46.570;14.268;2022-09-30T09:58:23;95187.16;;;13.10;96.75
51449;BME280;37520;46.570;14.268;2022-09-30T10:05:22;95172.06;;;12.95;97.13
51449;BME280;37520;46.570;14.268;2022-09-30T10:18:48;95192.25;;;12.91;97.50
51449;BME280;37520;46.570;14.268;2022-09-30T10:25:29;95190.41;;;12.86;95.70
51449;BME280;37520;46.570;14.268;2022-09-30T10:32:11;95201.81;;;12.82;92.24
51449;BME280;37520;46.570;14.268;2022-09-30T10:38:59;95207.34;;;12.90;93.54
51449;BME280;37520;46.570;14.268;2022-09-30T10:45:43;95207.59;;;12.99;91.94
51449;BME280;37520;46.570;14.268;2022-09-30T10:52:27;95210.78;;;13.06;92.30
51449;BME280;37520;46.570;14.268;2022-09-30T10:59:15;95219.00;;;13.15;95.08
51449;BME280;37520;46.570;14.268;2022-09-30T11:06:01;95213.19;;;13.08;95.73
51449;BME280;37520;46.570;14.268;2022-09-30T11:13:03;95217.69;;;13.07;97.05
51449;BME280;37520;46.570;14.268;2022-09-30T11:19:58;95236.25;;;13.13;96.97
51449;BME280;37520;46.570;14.268;2022-09-30T11:55:16;95268.13;;;12.82;100.00
51449;BME280;37520;46.570;14.268;2022-09-30T12:02:03;95277.69;;;12.78;100.00
51449;BME280;37520;46.570;14.268;2022-09-30T12:08:56;95279.78;;;12.70;100.00
51449;BME280;37520;46.570;14.268;2022-09-30T12:15:41;95298.34;;;12.65;100.00
51449;BME280;37520;46.570;14.268;2022-09-30T12:22:40;95307.91;;;12.61;100.00
51449;BME280;37520;46.570;14.268;2022-09-30T12:29:36;95300.19;;;12.60;100.00
51449;BME280;37520;46.570;14.268;2022-09-30T12:44:05;95301.50;;;12.62;100.00
51449;BME280;37520;46.570;14.268;2022-09-30T12:50:55;95304.72;;;12.54;100.00
51449;BME280;37520;46.570;14.268;2022-09-30T12:57:40;95300.72;;;12.51;100.00
51449;BME280;37520;46.570;14.268;2022-09-30T13:04:36;95297.00;;;12.47;100.00
51449;BME280;37520;46.570;14.268;2022-09-30T13:11:34;95306.00;;;12.41;100.00
51449;BME280;37520;46.570;14.268;2022-09-30T13:38:38;95303.34;;;12.36;100.00
51449;BME280;37520;46.570;14.268;2022-09-30T13:45:28;95300.41;;;12.37;100.00
51449;BME280;37520;46.570;14.268;2022-09-30T13:52:48;95325.88;;;12.38;100.00
51449;BME280;37520;46.570;14.268;2022-09-30T14:06:51;95322.19;;;12.45;100.00
51449;BME280;37520;46.570;14.268;2022-09-30T14:20:48;95330.94;;;12.50;100.00
51449;BME280;37520;46.570;14.268;2022-09-30T14:34:29;95347.09;;;12.44;100.00
51449;BME280;37520;46.570;14.268;2022-09-30T14:41:22;95356.91;;;12.38;100.00
51449;BME280;37520;46.570;14.268;2022-09-30T14:48:08;95362.97;;;12.33;100.00
51449;BME280;37520;46.570;14.268;2022-09-30T14:54:51;95357.09;;;12.26;100.00
51449;BME280;37520;46.570;14.268;2022-09-30T15:01:34;95357.06;;;12.11;100.00
51449;BME280;37520;46.570;14.268;2022-09-30T15:08:18;95348.00;;;12.01;100.00
51449;BME280;37520;46.570;14.268;2022-09-30T15:15:00;95353.31;;;12.01;100.00
51449;BME280;37520;46.570;14.268;2022-09-30T15:21:43;95363.63;;;11.98;100.00
51449;BME280;37520;46.570;14.268;2022-09-30T15:28:25;95363.88;;;11.96;100.00
51449;BME280;37520;46.570;14.268;2022-09-30T15:35:11;95365.69;;;11.90;100.00
51449;BME280;37520;46.570;14.268;2022-09-30T15:41:55;95373.59;;;11.85;100.00
51449;BME280;37520;46.570;14.268;2022-09-30T15:48:39;95389.47;;;11.80;100.00
51449;BME280;37520;46.570;14.268;2022-09-30T15:55:43;95398.44;;;11.74;100.00
51449;BME280;37520;46.570;14.268;2022-09-30T16:02:27;95412.13;;;11.66;100.00
51449;BME280;37520;46.570;14.268;2022-09-30T16:16:20;95422.41;;;11.57;100.00
51449;BME280;37520;46.570;14.268;2022-09-30T16:23:03;95428.22;;;11.54;100.00
51449;BME280;37520;46.570;14.268;2022-09-30T16:29:45;95418.38;;;11.49;100.00
51449;BME280;37520;46.570;14.268;2022-09-30T16:36:27;95414.66;;;11.45;100.00
51449;BME280;37520;46.570;14.268;2022-09-30T16:43:08;95409.84;;;11.42;100.00
51449;BME280;37520;46.570;14.268;2022-09-30T16:49:51;95421.75;;;11.39;100.00
51449;BME280;37520;46.570;14.268;2022-09-30T16:56:32;95421.22;;;11.37;100.00
51449;BME280;37520;46.570;14.268;2022-09-30T17:03:16;95421.97;;;11.33;100.00
51449;BME280;37520;46.570;14.268;2022-09-30T17:09:58;95437.75;;;11.22;100.00
51449;BME280;37520;46.570;14.268;2022-09-30T17:16:39;95443.03;;;11.22;100.00
51449;BME280;37520;46.570;14.268;2022-09-30T17:23:22;95455.16;;;11.18;100.00
51449;BME280;37520;46.570;14.268;2022-09-30T17:30:05;95455.13;;;11.13;100.00
51449;BME280;37520;46.570;14.268;2022-09-30T17:36:48;95461.72;;;11.10;100.00
51449;BME280;37520;46.570;14.268;2022-09-30T17:43:30;95455.63;;;11.10;100.00
51449;BME280;37520;46.570;14.268;2022-09-30T17:50:11;95467.75;;;11.06;100.00
51449;BME280;37520;46.570;14.268;2022-09-30T17:56:54;95451.84;;;11.01;100.00
51449;BME280;37520;46.570;14.268;2022-09-30T18:03:35;95456.25;;;10.95;100.00
51449;BME280;37520;46.570;14.268;2022-09-30T18:10:17;95453.31;;;10.91;100.00
51449;BME280;37520;46.570;14.268;2022-09-30T18:16:59;95451.50;;;10.92;100.00
51449;BME280;37520;46.570;14.268;2022-09-30T18:23:40;95464.72;;;10.92;100.00
51449;BME280;37520;46.570;14.268;2022-09-30T18:30:21;95455.97;;;10.91;100.00
51449;BME280;37520;46.570;14.268;2022-09-30T18:37:03;95464.72;;;10.92;100.00
51449;BME280;37520;46.570;14.268;2022-09-30T18:43:49;95477.94;;;10.92;100.00
51449;BME280;37520;46.570;14.268;2022-09-30T18:50:30;95481.94;;;10.94;100.00
51449;BME280;37520;46.570;14.268;2022-09-30T18:57:12;95475.84;;;10.94;100.00
51449;BME280;37520;46.570;14.268;2022-09-30T19:03:54;95482.50;;;10.96;100.00
51449;BME280;37520;46.570;14.268;2022-09-30T19:10:41;95486.72;;;10.97;100.00
51449;BME280;37520;46.570;14.268;2022-09-30T19:17:23;95477.97;;;10.97;100.00
51449;BME280;37520;46.570;14.268;2022-09-30T19:24:07;95492.00;;;10.97;100.00
51449;BME280;37520;46.570;14.268;2022-09-30T19:30:49;95483.78;;;10.94;100.00
51449;BME280;37520;46.570;14.268;2022-09-30T19:37:30;95483.53;;;10.95;100.00
51449;BME280;37520;46.570;14.268;2022-09-30T19:44:11;95476.63;;;10.94;100.00
51449;BME280;37520;46.570;14.268;2022-09-30T19:51:01;95481.38;;;10.92;100.00
51449;BME280;37520;46.570;14.268;2022-09-30T19:57:43;95483.78;;;10.94;100.00
51449;BME280;37520;46.570;14.268;2022-09-30T20:04:24;95469.44;;;10.90;100.00
51449;BME280;37520;46.570;14.268;2022-09-30T20:11:08;95485.88;;;10.92;100.00
51449;BME280;37520;46.570;14.268;2022-09-30T20:17:53;95484.00;;;10.92;100.00
51449;BME280;37520;46.570;14.268;2022-09-30T20:24:34;95509.13;;;10.90;100.00
51449;BME280;37520;46.570;14.268;2022-09-30T20:31:16;95500.38;;;10.89;100.00
51449;BME280;37520;46.570;14.268;2022-09-30T20:37:57;95493.81;;;10.92;100.00
51449;BME280;37520;46.570;14.268;2022-09-30T20:44:38;95502.00;;;10.90;100.00
51449;BME280;37520;46.570;14.268;2022-09-30T20:51:20;95496.13;;;10.88;100.00
51449;BME280;37520;46.570;14.268;2022-09-30T20:58:02;95500.66;;;10.88;100.00
51449;BME280;37520;46.570;14.268;2022-09-30T21:04:44;95482.41;;;10.91;100.00
51449;BME280;37520;46.570;14.268;2022-09-30T21:11:25;95494.22;;;10.84;100.00
51449;BME280;37520;46.570;14.268;2022-09-30T21:18:06;95502.97;;;10.84;100.00
51449;BME280;37520;46.570;14.268;2022-09-30T21:24:47;95500.03;;;10.80;100.00
51449;BME280;37520;46.570;14.268;2022-09-30T21:31:29;95508.50;;;10.83;100.00
51449;BME280;37520;46.570;14.268;2022-09-30T21:38:13;95507.47;;;10.84;100.00
51449;BME280;37520;46.570;14.268;2022-09-30T21:44:57;95511.69;;;10.85;100.00
51449;BME280;37520;46.570;14.268;2022-09-30T21:51:38;95508.81;;;10.86;100.00
51449;BME280;37520;46.570;14.268;2022-09-30T21:58:20;95495.06;;;10.84;100.00
51449;BME280;37520;46.570;14.268;2022-09-30T22:05:04;95488.94;;;10.84;100.00
51449;BME280;37520;46.570;14.268;2022-09-30T22:11:46;95479.41;;;10.83;100.00
51449;BME280;37520;46.570;14.268;2022-09-30T22:18:28;95495.53;;;10.81;100.00
51449;BME280;37520;46.570;14.268;2022-09-30T22:25:12;95491.59;;;10.84;100.00
51449;BME280;37520;46.570;14.268;2022-09-30T22:31:54;95489.19;;;10.82;100.00
51449;BME280;37520;46.570;14.268;2022-09-30T22:38:35;95482.06;;;10.83;100.00
51449;BME280;37520;46.570;14.268;2022-09-30T22:45:17;95472.53;;;10.82;100.00
51449;BME280;37520;46.570;14.268;2022-09-30T22:51:59;95469.34;;;10.79;100.00
51449;BME280;37520;46.570;14.268;2022-09-30T22:58:41;95471.16;;;10.79;100.00
51449;BME280;37520;46.570;14.268;2022-09-30T23:05:24;95465.88;;;10.79;100.00
51449;BME280;37520;46.570;14.268;2022-09-30T23:12:06;95468.00;;;10.77;100.00
51449;BME280;37520;46.570;14.268;2022-09-30T23:18:48;95475.66;;;10.78;100.00
51449;BME280;37520;46.570;14.268;2022-09-30T23:25:29;95464.84;;;10.80;100.00
51449;BME280;37520;46.570;14.268;2022-09-30T23:32:11;95468.31;;;10.80;100.00
51449;BME280;37520;46.570;14.268;2022-09-30T23:38:52;95465.88;;;10.79;100.00
51449;BME280;37520;46.570;14.268;2022-09-30T23:45:34;95475.72;;;10.84;100.00
51449;BME280;37520;46.570;14.268;2022-09-30T23:52:15;95494.75;;;10.80;100.00
51449;BME280;37520;46.570;14.268;2022-09-30T23:58:57;95474.94;;;10.83;100.00
